Time;durP1;ratioP1;P1;durP2;ratioP2;P2;SDS_P1;SDS_P2;PMS_P1;PMS_P2;Temp;Humidity;BMP_temperature;BMP_pressure;BME280_temperature;BME280_humidity;BME280_pressure;Samples;Min_cycle;Max_cycle;Signal;HPM_P1;HPM_P2
2023/04/16 00:01:30;;;;;;;29.00;11.20;;;8.10;99.90;;;;;;5076522;28;20517;-39
2023/04/16 00:03:56;;;;;;;24.33;10.07;;;8.20;99.90;;;;;;5076398;28;20449;-40
2023/04/16 00:06:22;;;;;;;32.27;11.93;;;8.10;99.90;;;;;;5075375;28;20399;-40
2023/04/16 00:08:48;;;;;;;26.57;11.13;;;8.20;99.90;;;;;;5076253;28;20052;-40
2023/04/16 00:11:14;;;;;;;24.37;11.23;;;8.20;99.90;;;;;;5076584;28;20044;-39
2023/04/16 00:13:40;;;;;;;25.40;11.05;;;8.20;99.90;;;;;;5075367;28;20399;-40
2023/04/16 00:16:06;;;;;;;27.13;11.13;;;8.10;99.90;;;;;;5076324;28;20048;-40
2023/04/16 00:18:31;;;;;;;29.13;11.68;;;8.20;99.90;;;;;;5076105;28;20048;-39
2023/04/16 00:20:58;;;;;;;30.13;12.33;;;8.20;99.90;;;;;;5074818;28;20087;-39
2023/04/16 00:23:24;;;;;;;27.50;11.13;;;8.10;99.90;;;;;;5076389;28;20048;-39
2023/04/16 00:25:50;;;;;;;25.37;11.67;;;8.20;99.90;;;;;;5076016;28;20044;-39
2023/04/16 00:28:15;;;;;;;24.77;11.07;;;8.10;99.90;;;;;;5075933;28;20283;-39
2023/04/16 00:30:41;;;;;;;29.43;11.70;;;8.10;99.90;;;;;;5075803;28;20393;-39
2023/04/16 00:33:07;;;;;;;24.67;11.17;;;8.10;99.90;;;;;;5075959;28;20175;-39
2023/04/16 00:35:33;;;;;;;27.97;11.60;;;8.10;99.90;;;;;;5074860;28;20498;-40
2023/04/16 00:37:59;;;;;;;27.15;11.80;;;8.10;99.90;;;;;;5075783;28;20056;-39
2023/04/16 00:40:28;;;;;;;27.10;12.27;;;8.10;99.90;;;;;;5075718;28;20045;-40
2023/04/16 00:42:54;;;;;;;24.73;9.98;;;8.10;99.90;;;;;;5075898;28;20044;-40
2023/04/16 00:45:19;;;;;;;26.70;11.77;;;8.10;99.90;;;;;;5075526;28;20131;-40
2023/04/16 00:47:45;;;;;;;26.77;11.73;;;8.10;99.90;;;;;;5074271;28;20131;-39
2023/04/16 00:50:11;;;;;;;29.38;11.80;;;8.10;99.90;;;;;;5075194;28;20047;-40
2023/04/16 00:52:38;;;;;;;26.60;11.83;;;8.10;99.90;;;;;;5075502;28;20044;-40
2023/04/16 00:55:06;;;;;;;22.98;11.15;;;8.10;99.90;;;;;;5075406;28;20094;-40
2023/04/16 00:57:31;;;;;;;26.92;11.32;;;8.10;99.90;;;;;;5075271;28;20052;-40
2023/04/16 00:59:57;;;;;;;23.67;10.27;;;8.10;99.90;;;;;;5074071;28;20041;-40
2023/04/16 01:02:23;;;;;;;21.50;10.20;;;8.10;99.90;;;;;;5075475;28;20037;-39
2023/04/16 01:04:50;;;;;;;25.25;10.52;;;8.10;99.90;;;;;;5075077;28;20102;-40
2023/04/16 01:07:16;;;;;;;22.95;9.40;;;8.00;99.90;;;;;;5075209;28;20052;-40
2023/04/16 01:09:42;;;;;;;22.40;10.48;;;8.00;99.90;;;;;;5075111;28;20032;-39
2023/04/16 01:12:07;;;;;;;19.87;10.67;;;8.00;99.90;;;;;;5075006;28;20508;-40
2023/04/16 01:14:35;;;;;;;19.20;9.20;;;8.00;99.90;;;;;;5074132;28;20051;-40
2023/04/16 01:17:02;;;;;;;21.90;8.73;;;8.00;99.90;;;;;;5074912;28;20048;-39
2023/04/16 01:19:30;;;;;;;;;;;7.90;99.90;;;;;;5075134;28;20066;-40
2023/04/16 01:21:56;;;;;;;17.77;7.65;;;7.90;99.90;;;;;;5074885;28;20401;-40
2023/04/16 01:24:23;;;;;;;16.10;7.22;;;8.00;99.90;;;;;;5073698;28;20051;-40
2023/04/16 01:26:49;;;;;;;16.35;7.93;;;7.90;99.90;;;;;;5074617;28;20078;-39
2023/04/16 01:29:15;;;;;;;17.43;8.33;;;7.90;99.90;;;;;;5073443;28;20044;-40
2023/04/16 01:31:40;;;;;;;18.43;8.30;;;7.90;99.90;;;;;;5074797;28;20090;-39
2023/04/16 01:34:06;;;;;;;21.13;9.13;;;7.80;99.90;;;;;;5074528;28;20090;-40
2023/04/16 01:36:31;;;;;;;20.33;8.47;;;7.80;99.90;;;;;;5074604;28;20044;-40
2023/04/16 01:38:57;;;;;;;20.63;8.33;;;7.80;99.90;;;;;;5074592;28;20105;-40
2023/04/16 01:41:23;;;;;;;21.53;9.50;;;7.80;99.90;;;;;;5073562;28;20053;-40
2023/04/16 01:43:48;;;;;;;21.77;8.70;;;7.80;99.90;;;;;;5074348;28;20048;-39
2023/04/16 01:46:19;;;;;;;18.97;8.47;;;7.80;99.90;;;;;;5074327;28;20052;-39
2023/04/16 01:48:45;;;;;;;22.23;9.05;;;7.80;99.90;;;;;;5074230;28;20415;-39
2023/04/16 01:51:11;;;;;;;23.67;10.25;;;7.80;99.90;;;;;;5074296;28;20040;-40
2023/04/16 01:53:37;;;;;;;20.13;8.63;;;7.80;99.90;;;;;;5074611;28;20045;-40
2023/04/16 01:56:03;;;;;;;20.27;8.87;;;7.80;99.90;;;;;;5074248;28;20394;-39
2023/04/16 01:58:29;;;;;;;21.00;8.03;;;7.90;99.90;;;;;;5074114;28;20495;-40
2023/04/16 02:00:55;;;;;;;21.45;8.70;;;7.90;99.90;;;;;;5074092;28;20287;-39
2023/04/16 02:03:23;;;;;;;25.23;10.13;;;7.90;99.90;;;;;;5073854;28;20544;-40
2023/04/16 02:05:50;;;;;;;24.35;9.38;;;7.90;99.90;;;;;;5074082;28;20324;-39
2023/04/16 02:08:16;;;;;;;28.80;10.30;;;7.90;99.90;;;;;;5074046;28;20398;-40
2023/04/16 02:10:45;;;;;;;25.75;10.07;;;7.90;99.90;;;;;;5072827;28;20039;-40
2023/04/16 02:13:11;;;;;;;24.90;10.25;;;7.90;99.90;;;;;;5073993;28;20052;-40
2023/04/16 02:15:36;;;;;;;24.37;10.60;;;7.90;99.90;;;;;;5073863;28;20048;-40
2023/04/16 02:18:02;;;;;;;24.27;10.57;;;8.00;99.90;;;;;;5073883;28;20510;-40
2023/04/16 02:20:27;;;;;;;26.53;11.20;;;8.00;99.90;;;;;;5072943;28;20085;-39
2023/04/16 02:22:53;;;;;;;26.83;9.83;;;8.00;99.90;;;;;;5072963;28;20052;-40
2023/04/16 02:25:19;;;;;;;24.03;11.13;;;8.00;99.90;;;;;;5073088;28;20044;-39
2023/04/16 02:27:44;;;;;;;24.47;10.53;;;8.00;99.90;;;;;;5056243;28;20048;-39
2023/04/16 02:30:10;;;;;;;25.50;11.07;;;8.00;99.90;;;;;;5073367;28;20067;-40
2023/04/16 02:32:36;;;;;;;21.02;10.43;;;8.10;99.90;;;;;;5072428;28;20057;-40
2023/04/16 02:35:02;;;;;;;23.17;10.00;;;8.00;99.90;;;;;;5074080;28;20461;-40
2023/04/16 02:37:29;;;;;;;26.63;11.30;;;8.00;99.90;;;;;;5073290;28;20115;-40
2023/04/16 02:39:54;;;;;;;23.63;10.27;;;8.00;99.90;;;;;;5073771;28;20468;-40
2023/04/16 02:42:20;;;;;;;20.40;10.47;;;8.10;99.90;;;;;;5073696;28;20044;-40
2023/04/16 02:44:46;;;;;;;21.90;10.23;;;8.10;99.90;;;;;;5072686;28;20048;-40
2023/04/16 02:47:11;;;;;;;22.00;9.60;;;8.10;99.90;;;;;;5073588;28;20048;-40
2023/04/16 02:49:37;;;;;;;22.60;9.27;;;8.10;99.90;;;;;;5073507;28;20036;-40
2023/04/16 02:52:03;;;;;;;29.63;10.13;;;8.10;99.90;;;;;;5073546;28;20080;-40
2023/04/16 02:54:28;;;;;;;23.37;8.93;;;8.10;99.90;;;;;;5073574;28;20044;-40
2023/04/16 02:56:54;;;;;;;24.47;9.27;;;8.10;99.90;;;;;;5072469;28;20101;-40
2023/04/16 02:59:20;;;;;;;22.37;9.10;;;8.00;99.90;;;;;;5073391;28;20078;-40
2023/04/16 03:01:45;;;;;;;24.33;10.80;;;8.10;99.90;;;;;;5073195;28;20052;-40
2023/04/16 03:04:11;;;;;;;24.30;8.70;;;8.10;99.90;;;;;;5073487;28;20445;-39
2023/04/16 03:06:36;;;;;;;22.67;10.20;;;8.00;99.90;;;;;;5073727;28;20395;-40
2023/04/16 03:09:02;;;;;;;21.47;9.63;;;8.10;99.90;;;;;;5073242;28;20040;-40
2023/04/16 03:11:28;;;;;;;22.50;8.73;;;8.10;99.90;;;;;;5073284;28;20048;-40
2023/04/16 03:13:53;;;;;;;24.10;9.93;;;8.10;99.90;;;;;;5073231;28;20127;-39
2023/04/16 03:16:19;;;;;;;24.83;10.00;;;8.00;99.90;;;;;;5073243;28;20072;-40
2023/04/16 03:18:45;;;;;;;21.37;9.40;;;8.00;99.90;;;;;;5073508;28;20049;-40
2023/04/16 03:21:10;;;;;;;23.17;9.73;;;8.00;99.90;;;;;;5073331;28;20391;-40
2023/04/16 03:23:36;;;;;;;21.00;9.03;;;7.90;99.90;;;;;;5073301;28;20518;-40
2023/04/16 03:26:02;;;;;;;21.60;9.77;;;7.90;99.90;;;;;;5073176;28;20150;-40
2023/04/16 03:28:27;;;;;;;21.70;10.00;;;7.90;99.90;;;;;;5073088;28;20514;-40
2023/04/16 03:30:53;;;;;;;22.40;9.60;;;7.90;99.90;;;;;;5072889;28;20056;-40
2023/04/16 03:33:20;;;;;;;20.93;8.57;;;7.80;99.90;;;;;;5072349;28;20119;-40
2023/04/16 03:35:45;;;;;;;19.70;9.07;;;7.80;99.90;;;;;;5073171;28;20051;-39
2023/04/16 03:38:11;;;;;;;21.00;8.90;;;7.70;99.90;;;;;;5073118;28;20040;-39
2023/04/16 03:40:38;;;;;;;17.93;8.70;;;7.70;99.90;;;;;;5073299;28;20127;-40
2023/04/16 03:43:03;;;;;;;20.27;9.35;;;7.60;99.90;;;;;;5072027;28;20079;-40
2023/04/16 03:45:29;;;;;;;19.53;8.17;;;7.50;99.90;;;;;;5071947;28;20087;-40
2023/04/16 03:47:55;;;;;;;21.57;8.57;;;7.50;99.90;;;;;;5073770;28;20070;-40
2023/04/16 03:50:20;;;;;;;18.57;7.87;;;7.40;99.90;;;;;;5075629;28;20045;-39
2023/04/16 03:52:48;;;;;;;20.07;8.63;;;7.40;99.90;;;;;;5075558;28;20090;-40
2023/04/16 03:55:14;;;;;;;18.90;8.13;;;7.40;99.90;;;;;;5075487;28;20044;-39
2023/04/16 03:57:40;;;;;;;18.97;8.97;;;7.40;99.90;;;;;;5076563;28;20097;-40
2023/04/16 04:00:07;;;;;;;19.88;8.13;;;7.40;99.90;;;;;;5076257;28;20131;-40
2023/04/16 04:02:32;;;;;;;15.85;8.05;;;7.40;99.90;;;;;;5076870;28;20044;-39
2023/04/16 04:04:58;;;;;;;20.70;8.23;;;7.40;99.90;;;;;;5076358;28;20102;-40
2023/04/16 04:07:23;;;;;;;18.73;7.50;;;7.40;99.90;;;;;;5075050;28;20127;-39
2023/04/16 04:09:49;;;;;;;20.93;8.37;;;7.40;99.90;;;;;;5076266;28;20071;-39
2023/04/16 04:12:15;;;;;;;19.60;8.80;;;7.30;99.90;;;;;;5075361;28;20490;-40
2023/04/16 04:14:40;;;;;;;21.27;8.57;;;7.30;99.90;;;;;;5076163;28;20055;-40
2023/04/16 04:17:07;;;;;;;16.33;7.80;;;7.30;99.90;;;;;;5075201;28;20052;-40
2023/04/16 04:19:33;;;;;;;19.02;8.48;;;7.30;99.90;;;;;;5076068;28;20046;-40
2023/04/16 04:21:58;;;;;;;17.83;8.07;;;7.30;99.90;;;;;;5076315;28;20471;-40
2023/04/16 04:24:25;;;;;;;16.00;7.03;;;7.30;99.90;;;;;;5076161;28;20131;-39
2023/04/16 04:26:51;;;;;;;14.48;6.90;;;7.20;99.90;;;;;;5075803;28;20052;-39
2023/04/16 04:29:17;;;;;;;13.40;6.60;;;7.10;99.90;;;;;;5076386;28;20036;-39
2023/04/16 04:31:42;;;;;;;11.70;6.43;;;7.00;99.90;;;;;;5074744;28;20059;-40
2023/04/16 04:34:08;;;;;;;14.00;6.93;;;7.00;99.90;;;;;;5074676;28;20044;-39
2023/04/16 04:36:34;;;;;;;13.50;6.93;;;6.90;99.90;;;;;;5076070;28;20446;-39
2023/04/16 04:38:59;;;;;;;14.53;7.57;;;7.00;99.90;;;;;;5075960;28;20041;-40
2023/04/16 04:41:25;;;;;;;15.33;7.60;;;6.90;99.90;;;;;;5075836;28;20127;-39
2023/04/16 04:43:51;;;;;;;13.18;6.82;;;6.90;99.90;;;;;;5074404;28;20049;-40
2023/04/16 04:46:17;;;;;;;14.10;7.03;;;7.00;99.90;;;;;;5075622;28;20052;-39
2023/04/16 04:48:43;;;;;;;13.17;6.87;;;6.90;99.90;;;;;;5075900;28;20044;-39
2023/04/16 04:51:08;;;;;;;11.73;6.20;;;6.90;99.90;;;;;;5075500;28;20476;-39
2023/04/16 04:53:34;;;;;;;13.43;6.37;;;6.90;99.90;;;;;;5057732;28;20088;-39
2023/04/16 04:56:00;;;;;;;12.60;6.60;;;6.80;99.90;;;;;;5074401;28;20068;-39
2023/04/16 04:58:25;;;;;;;13.17;6.93;;;6.80;99.90;;;;;;5075260;28;20094;-40
2023/04/16 05:00:51;;;;;;;11.63;6.47;;;6.80;99.90;;;;;;5075243;28;20093;-39
2023/04/16 05:03:20;;;;;;;11.30;6.23;;;6.80;99.90;;;;;;5074392;28;20044;-40
2023/04/16 05:05:46;;;;;;;9.80;5.85;;;6.70;99.90;;;;;;5075201;28;20495;-40
2023/04/16 05:08:12;;;;;;;11.18;6.97;;;6.70;99.90;;;;;;5075408;28;20052;-39
2023/04/16 05:10:38;;;;;;;12.50;6.10;;;6.70;99.90;;;;;;5075002;28;20400;-39
2023/04/16 05:13:03;;;;;;;11.83;6.87;;;6.70;99.90;;;;;;5074892;28;20044;-40
2023/04/16 05:15:29;;;;;;;11.47;6.57;;;6.70;99.90;;;;;;5074981;28;20376;-40
2023/04/16 05:17:55;;;;;;;11.47;6.47;;;6.70;99.90;;;;;;5074942;28;20041;-39
2023/04/16 05:20:23;;;;;;;11.27;6.60;;;6.70;99.90;;;;;;5075085;28;20044;-39
2023/04/16 05:22:50;;;;;;;11.23;6.10;;;6.70;99.90;;;;;;5074718;28;20048;-39
2023/04/16 05:25:16;;;;;;;13.43;6.55;;;6.70;99.90;;;;;;5074864;28;20053;-39
2023/04/16 05:27:42;;;;;;;11.38;6.15;;;6.80;99.90;;;;;;5074678;28;20541;-40
2023/04/16 05:30:08;;;;;;;13.52;7.47;;;6.80;99.90;;;;;;5074423;28;20491;-40
2023/04/16 05:32:36;;;;;;;12.50;6.10;;;6.80;99.90;;;;;;5074725;28;20052;-40
2023/04/16 05:35:01;;;;;;;11.65;5.68;;;6.80;99.90;;;;;;5074374;28;20539;-39
2023/04/16 05:37:27;;;;;;;11.27;6.03;;;6.80;99.90;;;;;;5074570;28;20132;-40
2023/04/16 05:39:52;;;;;;;15.90;6.90;;;6.80;99.90;;;;;;5074342;28;20044;-40
2023/04/16 05:42:18;;;;;;;14.13;7.07;;;6.80;99.90;;;;;;5073297;28;20044;-40
2023/04/16 05:44:44;;;;;;;15.77;6.80;;;6.80;99.90;;;;;;5073513;28;20489;-40
2023/04/16 05:47:10;;;;;;;18.47;8.00;;;6.80;99.90;;;;;;5074482;28;20051;-39
2023/04/16 05:49:38;;;;;;;13.10;7.03;;;6.90;99.90;;;;;;5074494;28;20360;-39
2023/04/16 05:52:05;;;;;;;19.63;7.82;;;6.90;99.90;;;;;;5074217;28;20086;-39
2023/04/16 05:54:30;;;;;;;16.02;7.00;;;7.00;99.90;;;;;;5074178;28;20165;-39
2023/04/16 05:56:56;;;;;;;15.40;7.10;;;7.10;99.90;;;;;;5074032;28;20131;-40
2023/04/16 05:59:22;;;;;;;16.93;7.97;;;7.10;99.90;;;;;;5074296;28;20145;-39
2023/04/16 06:01:47;;;;;;;15.37;7.50;;;7.20;99.90;;;;;;5074159;28;20479;-39
2023/04/16 06:04:13;;;;;;;14.30;6.87;;;7.20;99.90;;;;;;5074142;28;20067;-39
2023/04/16 06:06:39;;;;;;;15.63;7.30;;;7.30;99.90;;;;;;5074132;28;20137;-39
2023/04/16 06:09:04;;;;;;;15.87;7.30;;;7.30;99.90;;;;;;5073994;28;20048;-39
2023/04/16 06:11:30;;;;;;;17.53;7.40;;;7.30;99.90;;;;;;5073149;28;20049;-40
2023/04/16 06:13:56;;;;;;;18.63;7.67;;;7.40;99.90;;;;;;5074202;28;20548;-39
2023/04/16 06:16:21;;;;;;;16.80;7.53;;;7.40;99.90;;;;;;5074165;28;20412;-40
2023/04/16 06:18:47;;;;;;;18.00;7.47;;;7.40;99.90;;;;;;5074097;28;20430;-39
2023/04/16 06:21:13;;;;;;;16.33;7.40;;;7.40;99.90;;;;;;5073738;28;20091;-40
2023/04/16 06:23:38;;;;;;;18.33;7.63;;;7.50;99.90;;;;;;5073718;28;20095;-40
2023/04/16 06:26:05;;;;;;;16.13;7.40;;;7.50;99.90;;;;;;5073560;28;20086;-40
2023/04/16 06:28:30;;;;;;;15.13;7.20;;;7.50;99.90;;;;;;5072645;28;20127;-40
2023/04/16 06:30:58;;;;;;;;;;;7.50;99.90;;;;;;5073968;28;20076;-40
2023/04/16 06:33:24;;;;;;;20.90;7.38;;;7.60;99.90;;;;;;5073779;28;19924;-40
2023/04/16 06:35:49;;;;;;;16.40;7.93;;;7.70;99.90;;;;;;5073762;28;20041;-40
2023/04/16 06:38:15;;;;;;;14.67;6.53;;;7.70;99.90;;;;;;5073709;28;20045;-39
2023/04/16 06:40:41;;;;;;;18.27;7.33;;;7.80;99.90;;;;;;5073507;28;20044;-40
2023/04/16 06:43:07;;;;;;;20.30;6.87;;;7.90;99.90;;;;;;5074106;28;20483;-40
2023/04/16 06:45:33;;;;;;;17.60;7.03;;;8.00;99.90;;;;;;5073696;28;20048;-40
2023/04/16 06:47:59;;;;;;;17.13;6.25;;;8.00;99.90;;;;;;5073648;28;20271;-40
2023/04/16 06:50:25;;;;;;;16.53;6.77;;;8.10;99.90;;;;;;5073378;28;20450;-40
2023/04/16 06:52:51;;;;;;;12.82;6.32;;;8.20;99.90;;;;;;5073318;28;20521;-40
2023/04/16 06:55:17;;;;;;;13.07;6.50;;;8.20;99.90;;;;;;5073299;28;20127;-40
2023/04/16 06:57:43;;;;;;;16.17;7.10;;;8.30;99.90;;;;;;5073497;28;20286;-39
2023/04/16 07:00:09;;;;;;;20.10;7.13;;;8.40;99.90;;;;;;5073506;28;20479;-40
2023/04/16 07:02:34;;;;;;;16.42;6.93;;;8.40;99.90;;;;;;5073379;28;20044;-40
2023/04/16 07:05:00;;;;;;;21.17;6.63;;;8.50;99.90;;;;;;5072320;28;20043;-39
2023/04/16 07:07:26;;;;;;;20.17;7.03;;;8.60;99.90;;;;;;5073405;28;20079;-40
2023/04/16 07:09:51;;;;;;;20.87;7.47;;;8.60;99.90;;;;;;5073264;28;20127;-40
2023/04/16 07:12:17;;;;;;;16.13;7.57;;;8.70;99.90;;;;;;5073403;28;20048;-40
2023/04/16 07:14:43;;;;;;;17.13;8.00;;;8.70;99.90;;;;;;5073283;28;20052;-40
2023/04/16 07:17:08;;;;;;;18.47;7.90;;;8.70;99.90;;;;;;5072384;28;20056;-40
2023/04/16 07:19:34;;;;;;;17.13;7.53;;;8.80;99.90;;;;;;5073396;28;20079;-40
2023/04/16 07:22:00;;;;;;;16.13;7.97;;;8.80;99.90;;;;;;5073616;28;20080;-39
2023/04/16 07:24:26;;;;;;;19.13;7.73;;;8.80;99.90;;;;;;5076891;28;20048;-40
2023/04/16 07:26:52;;;;;;;20.00;8.33;;;8.90;99.90;;;;;;5077233;28;20476;-40
2023/04/16 07:29:17;;;;;;;20.70;8.07;;;8.90;99.90;;;;;;5075888;28;20437;-40
2023/04/16 07:31:44;;;;;;;22.83;8.83;;;8.90;99.90;;;;;;5076712;28;20396;-40
2023/04/16 07:34:10;;;;;;;14.50;7.10;;;9.00;99.90;;;;;;5077208;28;20058;-40
2023/04/16 07:36:36;;;;;;;18.30;8.43;;;9.00;99.90;;;;;;5076729;28;20403;-40
2023/04/16 07:39:02;;;;;;;24.53;7.77;;;9.00;99.90;;;;;;5076649;28;20037;-40
2023/04/16 07:41:28;;;;;;;20.23;8.07;;;9.00;99.90;;;;;;5076721;28;20044;-40
2023/04/16 07:43:54;;;;;;;15.20;7.37;;;9.10;99.90;;;;;;5075681;28;20094;-40
2023/04/16 07:46:20;;;;;;;15.47;7.23;;;9.00;99.90;;;;;;5075336;28;20161;-40
2023/04/16 07:48:46;;;;;;;21.83;8.48;;;9.10;99.90;;;;;;5076585;28;20044;-40
2023/04/16 07:51:12;;;;;;;21.87;7.27;;;9.10;99.90;;;;;;5076426;28;20410;-40
2023/04/16 07:53:38;;;;;;;16.57;7.93;;;9.10;99.90;;;;;;5076350;28;20086;-40
2023/04/16 07:56:03;;;;;;;14.90;6.90;;;9.10;99.90;;;;;;5076822;28;20293;-40
2023/04/16 07:58:29;;;;;;;19.30;7.23;;;9.00;99.90;;;;;;5076656;28;20057;-40
2023/04/16 08:00:55;;;;;;;14.63;7.73;;;9.00;99.90;;;;;;5076704;28;20045;-40
2023/04/16 08:03:21;;;;;;;18.17;7.73;;;9.00;99.90;;;;;;5076461;28;20075;-40
2023/04/16 08:05:46;;;;;;;17.97;7.57;;;9.10;99.90;;;;;;5076300;28;20080;-40
2023/04/16 08:08:12;;;;;;;18.80;6.83;;;9.20;99.90;;;;;;5076223;28;20098;-40
2023/04/16 08:10:38;;;;;;;20.10;7.23;;;9.20;99.90;;;;;;5075158;28;20045;-40
2023/04/16 08:13:04;;;;;;;17.55;8.10;;;9.20;99.90;;;;;;5076309;28;20499;-40
2023/04/16 08:15:30;;;;;;;19.13;7.17;;;9.30;99.90;;;;;;5076295;28;20044;-40
2023/04/16 08:17:55;;;;;;;14.00;7.57;;;9.40;99.90;;;;;;5075089;28;20056;-40
2023/04/16 08:20:21;;;;;;;15.67;7.77;;;9.50;99.90;;;;;;5076193;28;20044;-40
2023/04/16 08:22:47;;;;;;;21.43;7.93;;;9.50;99.90;;;;;;5075922;28;20040;-40
2023/04/16 08:25:14;;;;;;;19.05;8.35;;;9.50;99.90;;;;;;5076094;28;20052;-40
2023/04/16 08:27:40;;;;;;;14.48;7.15;;;9.60;99.90;;;;;;5076255;28;20462;-40
2023/04/16 08:30:06;;;;;;;15.43;7.77;;;9.60;99.90;;;;;;5075743;28;20084;-40
2023/04/16 08:32:32;;;;;;;18.80;7.75;;;9.70;99.90;;;;;;5074633;28;20098;-40
2023/04/16 08:34:58;;;;;;;18.73;9.27;;;9.80;99.90;;;;;;5075065;28;20079;-40
2023/04/16 08:37:25;;;;;;;16.23;8.27;;;9.80;99.90;;;;;;5091520;28;20052;-40
2023/04/16 08:39:50;;;;;;;20.17;7.43;;;9.90;99.90;;;;;;5075529;28;20388;-40
2023/04/16 08:42:31;;;;;;;19.20;7.77;;;10.00;99.90;;;;;;5075641;28;20049;-40
2023/04/16 08:45:12;;;;;;;17.92;8.27;;;10.00;99.90;;;;;;5075585;28;20127;-40
2023/04/16 08:47:38;;;;;;;17.52;8.55;;;10.10;99.90;;;;;;5075537;28;20109;-40
2023/04/16 08:50:05;;;;;;;19.87;9.23;;;10.10;99.90;;;;;;5074429;28;20044;-40
2023/04/16 08:52:31;;;;;;;14.73;7.78;;;10.20;99.90;;;;;;5075736;28;20424;-40
2023/04/16 08:55:03;;;;;;;17.30;8.00;;;10.20;99.90;;;;;;5075454;28;20043;-40
2023/04/16 08:57:42;;;;;;;17.70;8.05;;;10.20;99.90;;;;;;5075732;28;20044;-40
2023/04/16 09:00:09;;;;;;;17.02;7.78;;;10.30;99.90;;;;;;5075419;28;20036;-40
2023/04/16 09:02:36;;;;;;;19.80;7.97;;;10.40;99.90;;;;;;5075113;28;20056;-40
2023/04/16 09:05:04;;;;;;;14.93;7.85;;;10.40;99.90;;;;;;5074266;28;20053;-40
2023/04/16 09:07:31;;;;;;;16.40;7.95;;;10.50;99.90;;;;;;5075273;28;20114;-40
2023/04/16 09:09:59;;;;;;;16.15;8.20;;;10.50;99.90;;;;;;5090962;28;20124;-45
2023/04/16 09:12:25;;;;;;;17.77;7.93;;;10.60;99.90;;;;;;5074960;28;20062;-40
2023/04/16 09:14:50;;;;;;;17.48;7.70;;;10.60;99.90;;;;;;5074974;28;20048;-40
2023/04/16 09:17:18;;;;;;;13.57;7.20;;;10.60;99.90;;;;;;5074940;28;20128;-40
2023/04/16 09:19:44;;;;;;;14.63;7.90;;;10.60;99.90;;;;;;5073956;28;20052;-40
2023/04/16 09:22:11;;;;;;;15.27;7.35;;;10.70;99.90;;;;;;5074924;28;20044;-40
2023/04/16 09:24:37;;;;;;;15.60;7.38;;;10.80;99.90;;;;;;5073842;28;20132;-40
2023/04/16 09:27:03;;;;;;;15.10;7.53;;;10.80;99.90;;;;;;5074759;28;20080;-40
2023/04/16 09:29:39;;;;;;;16.08;7.95;;;10.90;99.90;;;;;;5074551;28;20044;-40
2023/04/16 09:32:07;;;;;;;19.02;7.72;;;10.90;99.90;;;;;;5073563;28;20131;-40
2023/04/16 09:34:34;;;;;;;14.20;7.32;;;11.00;99.90;;;;;;5074616;28;20101;-40
2023/04/16 09:37:15;;;;;;;18.40;6.00;;;11.00;99.90;;;;;;5074604;28;20122;-40
2023/04/16 09:39:42;;;;;;;16.17;7.60;;;11.00;99.90;;;;;;5074719;28;20048;-40
2023/04/16 09:42:08;;;;;;;17.50;7.80;;;11.10;99.90;;;;;;5074231;28;20102;-40
2023/04/16 09:44:38;;;;;;;15.20;7.68;;;11.10;99.90;;;;;;5074276;28;20083;-40
2023/04/16 09:47:08;;;;;;;14.05;6.93;;;11.10;99.90;;;;;;5073756;28;20052;-40
2023/04/16 09:49:39;;;;;;;13.27;6.60;;;11.10;99.90;;;;;;5074200;28;20040;-40
2023/04/16 09:52:12;;;;;;;15.88;7.07;;;11.20;99.90;;;;;;5074399;28;20071;-40
2023/04/16 09:54:41;;;;;;;15.40;7.35;;;11.20;99.90;;;;;;5074193;28;20079;-40
2023/04/16 09:57:07;;;;;;;13.38;7.40;;;11.30;99.90;;;;;;5073382;28;20063;-40
2023/04/16 09:59:35;;;;;;;14.50;6.93;;;11.30;99.90;;;;;;5074284;28;20045;-40
2023/04/16 10:02:00;;;;;;;16.90;7.18;;;11.40;99.90;;;;;;5074038;28;20483;-40
2023/04/16 10:04:26;;;;;;;13.27;7.03;;;11.40;99.90;;;;;;5074089;28;20151;-40
2023/04/16 10:07:05;;;;;;;17.53;7.27;;;11.50;99.90;;;;;;5074087;28;20479;-40
2023/04/16 10:09:35;;;;;;;16.25;7.25;;;11.50;99.90;;;;;;5074223;28;20045;-40
2023/04/16 10:12:01;;;;;;;17.48;7.65;;;11.50;99.90;;;;;;5073130;28;20479;-40
2023/04/16 10:14:27;;;;;;;16.97;8.10;;;11.60;99.90;;;;;;5074044;28;20045;-40
2023/04/16 10:16:54;;;;;;;16.80;6.53;;;11.60;99.90;;;;;;5074013;28;20131;-40
2023/04/16 10:19:20;;;;;;;16.30;7.28;;;11.60;99.90;;;;;;5073732;28;20094;-40
2023/04/16 10:21:47;;;;;;;20.58;7.78;;;11.70;99.90;;;;;;5073870;28;20044;-40
2023/04/16 10:24:15;;;;;;;15.65;7.40;;;11.70;99.90;;;;;;5073849;28;20075;-40
2023/04/16 10:26:41;;;;;;;16.83;7.82;;;11.80;99.90;;;;;;5073339;28;20053;-40
2023/04/16 10:29:08;;;;;;;14.43;6.38;;;11.80;99.90;;;;;;5073614;28;20103;-40
2023/04/16 10:31:36;;;;;;;14.30;6.88;;;11.80;99.90;;;;;;5072491;28;20062;-40
2023/04/16 10:34:03;;;;;;;15.68;6.93;;;11.80;99.90;;;;;;5073628;28;20067;-41
2023/04/16 10:36:29;;;;;;;14.43;7.05;;;11.90;99.90;;;;;;5073754;28;20123;-41
2023/04/16 10:38:59;;;;;;;15.43;7.43;;;11.90;99.90;;;;;;5073656;28;20053;-40
2023/04/16 10:41:26;;;;;;;19.55;8.15;;;11.90;99.90;;;;;;5073627;28;20057;-40
2023/04/16 10:43:52;;;;;;;;;;;11.90;99.90;;;;;;5074022;28;20048;-40
2023/04/16 10:46:19;;;;;;;15.07;7.75;;;12.00;99.90;;;;;;5073604;28;19920;-40
2023/04/16 10:48:51;;;;;;;14.82;7.35;;;12.00;99.90;;;;;;5073333;28;20105;-40
2023/04/16 10:51:24;;;;;;;17.80;7.32;;;12.10;99.90;;;;;;5073257;28;20561;-42
2023/04/16 10:53:50;;;;;;;16.33;7.32;;;12.10;99.90;;;;;;5073594;28;20049;-40
2023/04/16 10:56:22;;;;;;;20.13;7.82;;;12.20;99.90;;;;;;5072349;28;20040;-41
2023/04/16 10:58:48;;;;;;;16.80;6.88;;;12.20;99.90;;;;;;5077125;28;20172;-40
2023/04/16 11:01:15;;;;;;;14.17;7.37;;;12.20;99.90;;;;;;5077613;28;20037;-41
2023/04/16 11:03:47;;;;;;;14.48;7.20;;;12.10;99.90;;;;;;5076629;28;20053;-40
2023/04/16 11:06:22;;;;;;;15.13;7.70;;;12.20;99.90;;;;;;5077485;28;20087;-41
2023/04/16 11:08:50;;;;;;;17.33;8.38;;;12.10;99.90;;;;;;5076476;28;20044;-41
2023/04/16 11:11:17;;;;;;;16.23;7.53;;;12.10;99.90;;;;;;5077461;28;20051;-40
2023/04/16 11:13:44;;;;;;;17.42;8.25;;;12.10;99.90;;;;;;5077227;28;20127;-41
2023/04/16 11:16:14;;;;;;;17.38;8.10;;;12.10;99.90;;;;;;5075998;28;20044;-40
2023/04/16 11:18:40;;;;;;;16.40;7.32;;;12.10;99.90;;;;;;5077477;28;20113;-41
2023/04/16 11:21:11;;;;;;;14.82;7.45;;;12.10;99.90;;;;;;5059344;28;20048;-41
2023/04/16 11:23:51;;;;;;;21.08;8.38;;;12.10;99.90;;;;;;5076230;28;20055;-41
2023/04/16 11:26:28;;;;;;;22.23;7.72;;;12.10;99.90;;;;;;5076199;28;20105;-42
2023/04/16 11:28:55;;;;;;;17.15;7.43;;;12.10;99.90;;;;;;5076317;28;20127;-40
2023/04/16 11:31:22;;;;;;;13.43;7.13;;;12.10;99.90;;;;;;5076929;28;20499;-40
2023/04/16 11:33:49;;;;;;;16.25;7.80;;;12.20;99.90;;;;;;5077099;28;20053;-40
2023/04/16 11:36:14;;;;;;;17.40;8.68;;;12.20;99.90;;;;;;5077011;28;20090;-40
2023/04/16 11:38:41;;;;;;;18.17;7.47;;;12.30;99.90;;;;;;5076901;28;20087;-41
2023/04/16 11:41:08;;;;;;;17.13;8.07;;;12.40;99.90;;;;;;5076740;28;20078;-40
2023/04/16 11:43:34;;;;;;;14.77;7.53;;;12.40;99.90;;;;;;5076812;28;20091;-40
2023/04/16 11:46:05;;;;;;;18.48;7.95;;;12.50;99.90;;;;;;5075792;28;20075;-40
2023/04/16 11:48:53;;;;;;;16.15;8.02;;;12.40;99.90;;;;;;5076654;28;20048;-40
2023/04/16 11:51:19;;;;;;;21.05;8.63;;;12.40;99.90;;;;;;5076381;28;20399;-40
2023/04/16 11:53:52;;;;;;;17.25;8.63;;;12.30;99.90;;;;;;5075692;28;20395;-40
2023/04/16 11:56:29;;;;;;;13.27;7.45;;;12.30;99.90;;;;;;5076649;28;20051;-41
2023/04/16 11:59:12;;;;;;;19.50;8.40;;;12.20;99.90;;;;;;5075741;28;20199;-41
2023/04/16 12:01:40;;;;;;;16.58;8.20;;;12.20;99.90;;;;;;5075227;28;20048;-41
2023/04/16 12:04:06;;;;;;;14.85;7.57;;;12.20;99.90;;;;;;5076169;28;20048;-40
2023/04/16 12:06:32;;;;;;;;;;;12.30;99.90;;;;;;5076964;28;20063;-41
2023/04/16 12:09:21;;;;;;;15.65;9.05;;;12.30;99.90;;;;;;5075140;28;20317;-41
2023/04/16 12:11:46;;;;;;;14.88;8.45;;;12.30;99.90;;;;;;5092108;28;20135;-40
2023/04/16 12:14:12;;;;;;;13.87;8.00;;;12.40;99.90;;;;;;5075353;28;20127;-41
2023/04/16 12:16:38;;;;;;;19.13;9.47;;;12.40;99.90;;;;;;5076226;28;20084;-40
2023/04/16 12:19:04;;;;;;;19.23;8.63;;;12.50;99.90;;;;;;5075369;28;20060;-40
2023/04/16 12:21:59;;;;;;;20.88;8.73;;;12.50;99.90;;;;;;5076171;28;20052;-40
2023/04/16 12:24:26;;;;;;;16.73;8.18;;;12.50;99.90;;;;;;5073838;28;20521;-40
2023/04/16 12:26:56;;;;;;;;;;;12.50;99.90;;;;;;5042461;28;20123;-41
2023/04/16 12:29:26;;;;;;;16.92;8.05;;;12.60;99.90;;;;;;5074684;28;20376;-40
2023/04/16 12:31:53;;;;;;;16.75;7.95;;;12.70;99.90;;;;;;5075667;28;20522;-40
2023/04/16 12:34:20;;;;;;;19.05;9.52;;;12.70;99.90;;;;;;5075985;28;20044;-40
2023/04/16 12:37:01;;;;;;;18.95;9.10;;;12.70;99.90;;;;;;5075792;28;20055;-41
2023/04/16 12:39:27;;;;;;;19.70;9.05;;;12.70;99.90;;;;;;5075678;28;20041;-41
2023/04/16 12:41:52;;;;;;;15.10;8.10;;;12.70;99.90;;;;;;5075803;28;20507;-40